< < Back
Terminal Aerodrome Forecast


Current Version              Previous Versions:   1  2  3  4  5  6  7  8  9  

Terminal Aerodrome Forecast

883
FTUS44 KMOB 202300
TAFMOB
TAF
KMOB 202320Z 2100/2124 19007KT P6SM SCT060
     FM210300 00000KT P6SM BKN250
     FM211500 09009KT P6SM SKC=



Latest METAR

463
SAUS80 KWBC 220200 CCA
MTRMOB
METAR KMOB 220156Z 00000KT 10SM FEW200 10/08 A3030 RMK AO2 SLP261
T01000078


USA.gov is the U.S. government's official web portal to all federal, state and local government web resources and services.